sensor_id;sensor_type;location;lat;lon;timestamp;P1;durP1;ratioP1;P2;durP2;ratioP2
18411;SDS011;27097;51.738;19.472;2023-02-26T00:00:01;4.57;;;2.33;;
18411;SDS011;27097;51.738;19.472;2023-02-26T00:02:32;3.63;;;2.42;;
18411;SDS011;27097;51.738;19.472;2023-02-26T00:05:01;4.18;;;1.80;;
18411;SDS011;27097;51.738;19.472;2023-02-26T00:07:28;4.80;;;2.30;;
18411;SDS011;27097;51.738;19.472;2023-02-26T00:09:57;9.18;;;2.42;;
18411;SDS011;27097;51.738;19.472;2023-02-26T00:12:26;4.88;;;2.30;;
18411;SDS011;27097;51.738;19.472;2023-02-26T00:14:54;3.90;;;1.75;;
18411;SDS011;27097;51.738;19.472;2023-02-26T00:20:14;5.32;;;2.10;;
18411;SDS011;27097;51.738;19.472;2023-02-26T00:22:42;3.67;;;2.20;;
18411;SDS011;27097;51.738;19.472;2023-02-26T00:25:09;3.60;;;2.03;;
18411;SDS011;27097;51.738;19.472;2023-02-26T00:27:38;3.47;;;2.35;;
18411;SDS011;27097;51.738;19.472;2023-02-26T00:30:07;3.67;;;2.17;;
18411;SDS011;27097;51.738;19.472;2023-02-26T00:32:35;4.55;;;2.10;;
18411;SDS011;27097;51.738;19.472;2023-02-26T00:35:09;3.75;;;2.38;;
18411;SDS011;27097;51.738;19.472;2023-02-26T00:37:52;3.63;;;2.10;;
18411;SDS011;27097;51.738;19.472;2023-02-26T00:40:28;3.65;;;2.20;;
18411;SDS011;27097;51.738;19.472;2023-02-26T00:43:05;4.03;;;2.30;;
18411;SDS011;27097;51.738;19.472;2023-02-26T00:45:33;5.28;;;2.28;;
18411;SDS011;27097;51.738;19.472;2023-02-26T00:48:08;3.78;;;2.10;;
18411;SDS011;27097;51.738;19.472;2023-02-26T00:50:50;3.97;;;2.10;;
18411;SDS011;27097;51.738;19.472;2023-02-26T00:53:25;5.72;;;2.30;;
18411;SDS011;27097;51.738;19.472;2023-02-26T00:55:54;4.00;;;2.28;;
18411;SDS011;27097;51.738;19.472;2023-02-26T00:58:21;3.65;;;2.30;;
18411;SDS011;27097;51.738;19.472;2023-02-26T01:00:47;4.60;;;2.40;;
18411;SDS011;27097;51.738;19.472;2023-02-26T01:03:14;4.95;;;2.30;;
18411;SDS011;27097;51.738;19.472;2023-02-26T01:05:42;4.43;;;2.30;;
18411;SDS011;27097;51.738;19.472;2023-02-26T01:08:12;6.47;;;2.38;;
18411;SDS011;27097;51.738;19.472;2023-02-26T01:10:43;3.95;;;2.42;;
18411;SDS011;27097;51.738;19.472;2023-02-26T01:13:11;6.90;;;2.45;;
18411;SDS011;27097;51.738;19.472;2023-02-26T01:15:38;5.97;;;2.72;;
18411;SDS011;27097;51.738;19.472;2023-02-26T01:18:13;5.47;;;2.47;;
18411;SDS011;27097;51.738;19.472;2023-02-26T01:20:44;4.13;;;2.30;;
18411;SDS011;27097;51.738;19.472;2023-02-26T01:23:16;5.70;;;2.70;;
18411;SDS011;27097;51.738;19.472;2023-02-26T01:25:49;4.13;;;2.40;;
18411;SDS011;27097;51.738;19.472;2023-02-26T01:28:19;4.97;;;2.70;;
18411;SDS011;27097;51.738;19.472;2023-02-26T01:30:47;5.70;;;2.30;;
18411;SDS011;27097;51.738;19.472;2023-02-26T01:33:16;9.90;;;3.08;;
18411;SDS011;27097;51.738;19.472;2023-02-26T01:35:51;7.45;;;3.03;;
18411;SDS011;27097;51.738;19.472;2023-02-26T01:38:24;6.32;;;2.80;;
18411;SDS011;27097;51.738;19.472;2023-02-26T01:41:01;7.70;;;3.10;;
18411;SDS011;27097;51.738;19.472;2023-02-26T01:43:52;8.10;;;2.80;;
18411;SDS011;27097;51.738;19.472;2023-02-26T01:46:43;6.47;;;2.92;;
18411;SDS011;27097;51.738;19.472;2023-02-26T01:49:20;7.07;;;2.90;;
18411;SDS011;27097;51.738;19.472;2023-02-26T01:51:48;8.25;;;2.80;;
18411;SDS011;27097;51.738;19.472;2023-02-26T01:54:19;9.38;;;2.65;;
18411;SDS011;27097;51.738;19.472;2023-02-26T01:56:48;9.38;;;2.92;;
18411;SDS011;27097;51.738;19.472;2023-02-26T01:59:17;7.90;;;2.55;;
18411;SDS011;27097;51.738;19.472;2023-02-26T02:01:48;7.03;;;3.00;;
18411;SDS011;27097;51.738;19.472;2023-02-26T02:04:15;6.55;;;2.53;;
18411;SDS011;27097;51.738;19.472;2023-02-26T02:06:43;7.18;;;2.50;;
18411;SDS011;27097;51.738;19.472;2023-02-26T02:09:11;5.10;;;2.35;;
18411;SDS011;27097;51.738;19.472;2023-02-26T02:11:42;5.38;;;2.50;;
18411;SDS011;27097;51.738;19.472;2023-02-26T02:14:22;7.13;;;2.65;;
18411;SDS011;27097;51.738;19.472;2023-02-26T02:16:58;11.85;;;2.58;;
18411;SDS011;27097;51.738;19.472;2023-02-26T02:19:34;6.00;;;2.42;;
18411;SDS011;27097;51.738;19.472;2023-02-26T02:22:34;8.82;;;2.40;;
18411;SDS011;27097;51.738;19.472;2023-02-26T02:25:17;9.90;;;2.20;;
18411;SDS011;27097;51.738;19.472;2023-02-26T02:28:01;5.35;;;2.42;;
18411;SDS011;27097;51.738;19.472;2023-02-26T02:30:34;5.03;;;2.20;;
18411;SDS011;27097;51.738;19.472;2023-02-26T02:33:11;5.00;;;2.40;;
18411;SDS011;27097;51.738;19.472;2023-02-26T02:35:43;6.35;;;2.40;;
18411;SDS011;27097;51.738;19.472;2023-02-26T02:38:18;6.45;;;2.28;;
18411;SDS011;27097;51.738;19.472;2023-02-26T02:40:49;4.43;;;2.17;;
18411;SDS011;27097;51.738;19.472;2023-02-26T02:43:20;4.18;;;2.13;;
18411;SDS011;27097;51.738;19.472;2023-02-26T02:45:50;5.15;;;2.20;;
18411;SDS011;27097;51.738;19.472;2023-02-26T02:48:23;5.13;;;2.10;;
18411;SDS011;27097;51.738;19.472;2023-02-26T02:50:54;4.28;;;2.35;;
18411;SDS011;27097;51.738;19.472;2023-02-26T02:53:25;3.65;;;2.20;;
18411;SDS011;27097;51.738;19.472;2023-02-26T02:55:56;3.15;;;1.98;;
18411;SDS011;27097;51.738;19.472;2023-02-26T02:58:28;4.90;;;2.30;;
18411;SDS011;27097;51.738;19.472;2023-02-26T03:00:59;4.20;;;2.22;;
18411;SDS011;27097;51.738;19.472;2023-02-26T03:03:31;5.07;;;2.00;;
18411;SDS011;27097;51.738;19.472;2023-02-26T03:06:02;4.00;;;2.10;;
18411;SDS011;27097;51.738;19.472;2023-02-26T03:08:30;8.18;;;2.50;;
18411;SDS011;27097;51.738;19.472;2023-02-26T03:11:01;9.25;;;2.30;;
18411;SDS011;27097;51.738;19.472;2023-02-26T03:13:29;3.45;;;1.88;;
18411;SDS011;27097;51.738;19.472;2023-02-26T03:16:00;5.20;;;2.30;;
18411;SDS011;27097;51.738;19.472;2023-02-26T03:18:44;5.25;;;2.05;;
18411;SDS011;27097;51.738;19.472;2023-02-26T03:21:19;4.68;;;2.20;;
18411;SDS011;27097;51.738;19.472;2023-02-26T03:23:53;5.30;;;2.40;;
18411;SDS011;27097;51.738;19.472;2023-02-26T03:26:26;6.85;;;2.28;;
18411;SDS011;27097;51.738;19.472;2023-02-26T03:28:58;3.97;;;2.00;;
18411;SDS011;27097;51.738;19.472;2023-02-26T03:31:32;3.35;;;2.00;;
18411;SDS011;27097;51.738;19.472;2023-02-26T03:34:05;5.45;;;2.28;;
18411;SDS011;27097;51.738;19.472;2023-02-26T03:36:39;5.15;;;1.85;;
18411;SDS011;27097;51.738;19.472;2023-02-26T03:39:11;3.85;;;1.83;;
18411;SDS011;27097;51.738;19.472;2023-02-26T03:41:42;4.00;;;2.00;;
18411;SDS011;27097;51.738;19.472;2023-02-26T03:44:13;3.78;;;2.03;;
18411;SDS011;27097;51.738;19.472;2023-02-26T03:46:45;4.43;;;2.10;;
18411;SDS011;27097;51.738;19.472;2023-02-26T03:49:20;4.40;;;2.00;;
18411;SDS011;27097;51.738;19.472;2023-02-26T03:51:51;3.45;;;1.80;;
18411;SDS011;27097;51.738;19.472;2023-02-26T03:54:20;4.32;;;1.92;;
18411;SDS011;27097;51.738;19.472;2023-02-26T03:56:50;5.82;;;1.88;;
18411;SDS011;27097;51.738;19.472;2023-02-26T03:59:18;3.42;;;2.10;;
18411;SDS011;27097;51.738;19.472;2023-02-26T04:01:47;2.20;;;1.67;;
18411;SDS011;27097;51.738;19.472;2023-02-26T04:04:20;3.10;;;1.77;;
18411;SDS011;27097;51.738;19.472;2023-02-26T04:06:50;3.38;;;1.90;;
18411;SDS011;27097;51.738;19.472;2023-02-26T04:09:19;4.90;;;1.83;;
18411;SDS011;27097;51.738;19.472;2023-02-26T04:11:46;3.03;;;1.60;;
18411;SDS011;27097;51.738;19.472;2023-02-26T04:14:15;6.18;;;1.90;;
18411;SDS011;27097;51.738;19.472;2023-02-26T04:16:42;3.17;;;1.90;;
18411;SDS011;27097;51.738;19.472;2023-02-26T04:19:09;3.90;;;1.83;;
18411;SDS011;27097;51.738;19.472;2023-02-26T04:21:38;3.63;;;1.80;;
18411;SDS011;27097;51.738;19.472;2023-02-26T04:24:05;5.03;;;1.63;;
18411;SDS011;27097;51.738;19.472;2023-02-26T04:26:32;2.65;;;1.60;;
18411;SDS011;27097;51.738;19.472;2023-02-26T04:28:59;3.30;;;1.88;;
18411;SDS011;27097;51.738;19.472;2023-02-26T04:31:25;2.83;;;1.70;;
18411;SDS011;27097;51.738;19.472;2023-02-26T04:33:52;3.15;;;1.80;;
18411;SDS011;27097;51.738;19.472;2023-02-26T04:36:19;2.42;;;1.67;;
18411;SDS011;27097;51.738;19.472;2023-02-26T04:38:48;3.60;;;2.05;;
18411;SDS011;27097;51.738;19.472;2023-02-26T04:41:14;4.20;;;1.92;;
18411;SDS011;27097;51.738;19.472;2023-02-26T04:43:41;3.72;;;1.77;;
18411;SDS011;27097;51.738;19.472;2023-02-26T04:46:08;2.50;;;1.50;;
18411;SDS011;27097;51.738;19.472;2023-02-26T04:48:35;2.95;;;2.00;;
18411;SDS011;27097;51.738;19.472;2023-02-26T04:51:02;2.22;;;1.45;;
18411;SDS011;27097;51.738;19.472;2023-02-26T04:53:29;4.07;;;1.80;;
18411;SDS011;27097;51.738;19.472;2023-02-26T04:55:57;3.97;;;1.90;;
18411;SDS011;27097;51.738;19.472;2023-02-26T04:58:24;2.60;;;1.70;;
18411;SDS011;27097;51.738;19.472;2023-02-26T05:00:52;4.95;;;1.60;;
18411;SDS011;27097;51.738;19.472;2023-02-26T05:03:19;2.65;;;1.55;;
18411;SDS011;27097;51.738;19.472;2023-02-26T05:05:47;4.63;;;1.67;;
18411;SDS011;27097;51.738;19.472;2023-02-26T05:08:14;2.80;;;1.80;;
18411;SDS011;27097;51.738;19.472;2023-02-26T05:10:40;4.05;;;1.80;;
18411;SDS011;27097;51.738;19.472;2023-02-26T05:13:09;3.33;;;1.48;;
18411;SDS011;27097;51.738;19.472;2023-02-26T05:15:36;1.92;;;1.58;;
18411;SDS011;27097;51.738;19.472;2023-02-26T05:18:03;2.65;;;1.70;;
18411;SDS011;27097;51.738;19.472;2023-02-26T05:20:30;2.28;;;1.65;;
18411;SDS011;27097;51.738;19.472;2023-02-26T05:22:56;3.67;;;2.00;;
18411;SDS011;27097;51.738;19.472;2023-02-26T05:25:23;3.13;;;1.83;;
18411;SDS011;27097;51.738;19.472;2023-02-26T05:27:50;1.52;;;1.40;;
18411;SDS011;27097;51.738;19.472;2023-02-26T05:30:19;1.88;;;1.40;;
18411;SDS011;27097;51.738;19.472;2023-02-26T05:32:45;2.15;;;1.30;;
18411;SDS011;27097;51.738;19.472;2023-02-26T05:35:12;2.88;;;1.58;;
18411;SDS011;27097;51.738;19.472;2023-02-26T05:37:40;3.10;;;1.52;;
18411;SDS011;27097;51.738;19.472;2023-02-26T05:40:07;4.18;;;1.58;;
18411;SDS011;27097;51.738;19.472;2023-02-26T05:42:35;3.95;;;1.80;;
18411;SDS011;27097;51.738;19.472;2023-02-26T05:45:03;5.00;;;1.50;;
18411;SDS011;27097;51.738;19.472;2023-02-26T05:47:32;3.67;;;1.60;;
18411;SDS011;27097;51.738;19.472;2023-02-26T05:50:00;3.10;;;1.38;;
18411;SDS011;27097;51.738;19.472;2023-02-26T05:52:27;3.88;;;1.60;;
18411;SDS011;27097;51.738;19.472;2023-02-26T05:54:54;2.67;;;1.48;;
18411;SDS011;27097;51.738;19.472;2023-02-26T05:57:21;2.40;;;1.52;;
18411;SDS011;27097;51.738;19.472;2023-02-26T05:59:47;2.42;;;1.58;;
18411;SDS011;27097;51.738;19.472;2023-02-26T06:02:15;5.32;;;1.45;;
18411;SDS011;27097;51.738;19.472;2023-02-26T06:04:43;3.50;;;1.58;;
18411;SDS011;27097;51.738;19.472;2023-02-26T06:07:10;1.92;;;1.50;;
18411;SDS011;27097;51.738;19.472;2023-02-26T06:09:37;2.20;;;1.48;;
18411;SDS011;27097;51.738;19.472;2023-02-26T06:12:04;2.58;;;1.70;;
18411;SDS011;27097;51.738;19.472;2023-02-26T06:14:31;2.95;;;1.60;;
18411;SDS011;27097;51.738;19.472;2023-02-26T06:17:00;2.13;;;1.52;;
18411;SDS011;27097;51.738;19.472;2023-02-26T06:19:27;3.40;;;1.70;;
18411;SDS011;27097;51.738;19.472;2023-02-26T06:21:55;4.80;;;1.60;;
18411;SDS011;27097;51.738;19.472;2023-02-26T06:24:22;3.38;;;1.48;;
18411;SDS011;27097;51.738;19.472;2023-02-26T06:26:50;2.10;;;1.50;;
18411;SDS011;27097;51.738;19.472;2023-02-26T06:29:17;2.13;;;1.60;;
18411;SDS011;27097;51.738;19.472;2023-02-26T06:31:44;2.50;;;1.73;;
18411;SDS011;27097;51.738;19.472;2023-02-26T06:34:12;5.90;;;1.63;;
18411;SDS011;27097;51.738;19.472;2023-02-26T06:36:39;7.68;;;1.80;;
18411;SDS011;27097;51.738;19.472;2023-02-26T06:39:07;2.35;;;1.52;;
18411;SDS011;27097;51.738;19.472;2023-02-26T06:41:36;3.75;;;1.52;;
18411;SDS011;27097;51.738;19.472;2023-02-26T06:44:03;3.33;;;1.90;;
18411;SDS011;27097;51.738;19.472;2023-02-26T06:46:30;4.13;;;1.80;;
18411;SDS011;27097;51.738;19.472;2023-02-26T06:48:57;4.82;;;1.70;;
18411;SDS011;27097;51.738;19.472;2023-02-26T06:51:24;5.03;;;1.95;;
18411;SDS011;27097;51.738;19.472;2023-02-26T06:53:51;5.38;;;1.70;;
18411;SDS011;27097;51.738;19.472;2023-02-26T06:56:19;2.45;;;1.50;;
18411;SDS011;27097;51.738;19.472;2023-02-26T06:58:46;4.63;;;1.58;;
18411;SDS011;27097;51.738;19.472;2023-02-26T07:01:17;5.60;;;1.80;;
18411;SDS011;27097;51.738;19.472;2023-02-26T07:03:44;5.85;;;1.77;;
18411;SDS011;27097;51.738;19.472;2023-02-26T07:06:11;4.63;;;1.75;;
18411;SDS011;27097;51.738;19.472;2023-02-26T07:08:38;7.60;;;1.70;;
18411;SDS011;27097;51.738;19.472;2023-02-26T07:11:05;3.95;;;1.70;;
18411;SDS011;27097;51.738;19.472;2023-02-26T07:13:35;2.55;;;1.50;;
18411;SDS011;27097;51.738;19.472;2023-02-26T07:16:02;3.85;;;1.75;;
18411;SDS011;27097;51.738;19.472;2023-02-26T07:18:31;3.35;;;1.70;;
18411;SDS011;27097;51.738;19.472;2023-02-26T07:20:58;3.42;;;1.92;;
18411;SDS011;27097;51.738;19.472;2023-02-26T07:23:25;3.95;;;1.98;;
18411;SDS011;27097;51.738;19.472;2023-02-26T07:25:52;2.50;;;1.70;;
18411;SDS011;27097;51.738;19.472;2023-02-26T07:28:20;4.22;;;1.70;;
18411;SDS011;27097;51.738;19.472;2023-02-26T07:30:48;2.10;;;1.65;;
18411;SDS011;27097;51.738;19.472;2023-02-26T07:33:15;2.63;;;1.70;;
18411;SDS011;27097;51.738;19.472;2023-02-26T07:35:42;4.65;;;1.98;;
18411;SDS011;27097;51.738;19.472;2023-02-26T07:38:09;6.18;;;2.22;;
18411;SDS011;27097;51.738;19.472;2023-02-26T07:40:36;3.85;;;1.70;;
18411;SDS011;27097;51.738;19.472;2023-02-26T07:43:02;2.50;;;1.80;;
18411;SDS011;27097;51.738;19.472;2023-02-26T07:45:29;4.03;;;1.95;;
18411;SDS011;27097;51.738;19.472;2023-02-26T07:47:58;3.85;;;1.92;;
18411;SDS011;27097;51.738;19.472;2023-02-26T07:50:24;6.88;;;1.67;;
18411;SDS011;27097;51.738;19.472;2023-02-26T07:52:51;2.95;;;1.60;;
18411;SDS011;27097;51.738;19.472;2023-02-26T07:55:19;3.40;;;1.85;;
18411;SDS011;27097;51.738;19.472;2023-02-26T07:57:46;3.95;;;2.13;;
18411;SDS011;27097;51.738;19.472;2023-02-26T08:00:14;2.88;;;1.73;;
18411;SDS011;27097;51.738;19.472;2023-02-26T08:02:42;3.20;;;1.88;;
18411;SDS011;27097;51.738;19.472;2023-02-26T08:05:10;4.40;;;1.80;;
18411;SDS011;27097;51.738;19.472;2023-02-26T08:07:37;3.08;;;1.90;;
18411;SDS011;27097;51.738;19.472;2023-02-26T08:10:04;2.50;;;1.80;;
18411;SDS011;27097;51.738;19.472;2023-02-26T08:12:31;4.95;;;2.03;;
18411;SDS011;27097;51.738;19.472;2023-02-26T08:14:58;5.20;;;2.35;;
18411;SDS011;27097;51.738;19.472;2023-02-26T08:17:25;6.60;;;2.03;;
18411;SDS011;27097;51.738;19.472;2023-02-26T08:19:52;6.30;;;2.20;;
18411;SDS011;27097;51.738;19.472;2023-02-26T08:22:20;3.42;;;2.00;;
18411;SDS011;27097;51.738;19.472;2023-02-26T08:24:48;4.60;;;2.00;;
18411;SDS011;27097;51.738;19.472;2023-02-26T08:27:15;5.47;;;2.25;;
18411;SDS011;27097;51.738;19.472;2023-02-26T08:29:42;4.45;;;2.25;;
18411;SDS011;27097;51.738;19.472;2023-02-26T08:32:10;5.82;;;2.28;;
18411;SDS011;27097;51.738;19.472;2023-02-26T08:34:37;4.32;;;1.90;;
18411;SDS011;27097;51.738;19.472;2023-02-26T08:37:04;8.95;;;2.00;;
18411;SDS011;27097;51.738;19.472;2023-02-26T08:39:34;10.30;;;2.33;;
18411;SDS011;27097;51.738;19.472;2023-02-26T08:42:03;12.30;;;2.33;;
18411;SDS011;27097;51.738;19.472;2023-02-26T08:44:30;7.88;;;2.22;;
18411;SDS011;27097;51.738;19.472;2023-02-26T08:46:57;8.43;;;2.58;;
18411;SDS011;27097;51.738;19.472;2023-02-26T08:49:24;10.68;;;2.50;;
18411;SDS011;27097;51.738;19.472;2023-02-26T08:51:51;11.63;;;2.63;;
18411;SDS011;27097;51.738;19.472;2023-02-26T08:54:18;12.18;;;2.67;;
18411;SDS011;27097;51.738;19.472;2023-02-26T08:56:47;8.82;;;3.13;;
18411;SDS011;27097;51.738;19.472;2023-02-26T08:59:14;11.05;;;3.30;;
18411;SDS011;27097;51.738;19.472;2023-02-26T09:01:40;13.43;;;3.47;;
18411;SDS011;27097;51.738;19.472;2023-02-26T09:04:07;6.82;;;3.10;;
18411;SDS011;27097;51.738;19.472;2023-02-26T09:06:34;9.82;;;3.22;;
18411;SDS011;27097;51.738;19.472;2023-02-26T09:09:01;14.07;;;3.38;;
18411;SDS011;27097;51.738;19.472;2023-02-26T09:11:29;9.35;;;3.40;;
18411;SDS011;27097;51.738;19.472;2023-02-26T09:13:58;4.50;;;2.63;;
18411;SDS011;27097;51.738;19.472;2023-02-26T09:16:26;10.30;;;3.10;;
18411;SDS011;27097;51.738;19.472;2023-02-26T09:18:53;8.43;;;3.08;;
18411;SDS011;27097;51.738;19.472;2023-02-26T09:21:20;9.80;;;3.15;;
18411;SDS011;27097;51.738;19.472;2023-02-26T09:24:02;10.75;;;3.25;;
18411;SDS011;27097;51.738;19.472;2023-02-26T09:26:29;6.85;;;2.90;;
18411;SDS011;27097;51.738;19.472;2023-02-26T09:28:57;8.93;;;2.63;;
18411;SDS011;27097;51.738;19.472;2023-02-26T09:31:23;7.78;;;2.88;;
18411;SDS011;27097;51.738;19.472;2023-02-26T09:33:52;5.60;;;3.03;;
18411;SDS011;27097;51.738;19.472;2023-02-26T09:36:19;7.10;;;3.05;;
18411;SDS011;27097;51.738;19.472;2023-02-26T09:38:55;6.95;;;2.80;;
18411;SDS011;27097;51.738;19.472;2023-02-26T09:41:25;11.82;;;3.10;;
18411;SDS011;27097;51.738;19.472;2023-02-26T09:43:59;8.90;;;2.50;;
18411;SDS011;27097;51.738;19.472;2023-02-26T09:46:38;8.43;;;2.78;;
18411;SDS011;27097;51.738;19.472;2023-02-26T09:49:14;9.50;;;2.80;;
18411;SDS011;27097;51.738;19.472;2023-02-26T09:51:47;8.95;;;2.78;;
18411;SDS011;27097;51.738;19.472;2023-02-26T09:54:20;10.15;;;3.20;;
18411;SDS011;27097;51.738;19.472;2023-02-26T09:57:00;10.35;;;2.85;;
18411;SDS011;27097;51.738;19.472;2023-02-26T09:59:31;7.63;;;2.80;;
18411;SDS011;27097;51.738;19.472;2023-02-26T10:01:59;9.30;;;2.85;;
18411;SDS011;27097;51.738;19.472;2023-02-26T10:04:38;7.20;;;2.90;;
18411;SDS011;27097;51.738;19.472;2023-02-26T10:07:19;5.72;;;2.63;;
18411;SDS011;27097;51.738;19.472;2023-02-26T10:10:00;5.72;;;2.72;;
18411;SDS011;27097;51.738;19.472;2023-02-26T10:12:48;5.72;;;2.70;;
18411;SDS011;27097;51.738;19.472;2023-02-26T10:15:25;5.55;;;2.65;;
18411;SDS011;27097;51.738;19.472;2023-02-26T10:18:17;9.05;;;3.00;;
18411;SDS011;27097;51.738;19.472;2023-02-26T10:20:55;6.15;;;2.90;;
18411;SDS011;27097;51.738;19.472;2023-02-26T10:23:31;5.68;;;2.83;;
18411;SDS011;27097;51.738;19.472;2023-02-26T10:26:16;7.97;;;3.30;;
18411;SDS011;27097;51.738;19.472;2023-02-26T10:32:22;7.95;;;2.83;;
18411;SDS011;27097;51.738;19.472;2023-02-26T10:34:56;6.43;;;3.00;;
18411;SDS011;27097;51.738;19.472;2023-02-26T10:37:30;8.32;;;2.92;;
18411;SDS011;27097;51.738;19.472;2023-02-26T10:40:08;6.00;;;2.78;;
18411;SDS011;27097;51.738;19.472;2023-02-26T10:42:40;13.52;;;2.90;;
18411;SDS011;27097;51.738;19.472;2023-02-26T10:45:16;5.38;;;2.78;;
18411;SDS011;27097;51.738;19.472;2023-02-26T10:48:18;8.65;;;3.20;;
18411;SDS011;27097;51.738;19.472;2023-02-26T10:50:55;9.98;;;3.10;;
18411;SDS011;27097;51.738;19.472;2023-02-26T10:53:27;10.55;;;3.45;;
18411;SDS011;27097;51.738;19.472;2023-02-26T10:56:00;6.85;;;2.75;;
18411;SDS011;27097;51.738;19.472;2023-02-26T10:58:33;10.57;;;3.03;;
18411;SDS011;27097;51.738;19.472;2023-02-26T11:01:00;12.80;;;3.40;;
18411;SDS011;27097;51.738;19.472;2023-02-26T11:03:33;8.27;;;3.28;;
18411;SDS011;27097;51.738;19.472;2023-02-26T11:06:21;14.15;;;3.72;;
18411;SDS011;27097;51.738;19.472;2023-02-26T11:08:56;10.77;;;3.20;;
18411;SDS011;27097;51.738;19.472;2023-02-26T11:11:36;7.55;;;3.00;;
18411;SDS011;27097;51.738;19.472;2023-02-26T11:14:07;11.20;;;3.38;;
18411;SDS011;27097;51.738;19.472;2023-02-26T11:16:39;9.27;;;3.55;;
18411;SDS011;27097;51.738;19.472;2023-02-26T11:19:11;7.68;;;2.97;;
18411;SDS011;27097;51.738;19.472;2023-02-26T11:21:43;9.80;;;3.13;;
18411;SDS011;27097;51.738;19.472;2023-02-26T11:24:14;8.40;;;3.30;;
18411;SDS011;27097;51.738;19.472;2023-02-26T11:26:46;13.77;;;3.20;;
18411;SDS011;27097;51.738;19.472;2023-02-26T11:29:20;11.07;;;3.67;;
18411;SDS011;27097;51.738;19.472;2023-02-26T11:31:49;6.85;;;3.05;;
18411;SDS011;27097;51.738;19.472;2023-02-26T11:34:22;6.53;;;2.83;;
18411;SDS011;27097;51.738;19.472;2023-02-26T11:36:50;11.65;;;3.13;;
18411;SDS011;27097;51.738;19.472;2023-02-26T11:39:21;9.13;;;3.08;;
18411;SDS011;27097;51.738;19.472;2023-02-26T11:41:52;9.68;;;3.10;;
18411;SDS011;27097;51.738;19.472;2023-02-26T11:44:30;9.15;;;3.22;;
18411;SDS011;27097;51.738;19.472;2023-02-26T11:47:03;6.35;;;3.00;;
18411;SDS011;27097;51.738;19.472;2023-02-26T11:49:33;10.77;;;2.90;;
18411;SDS011;27097;51.738;19.472;2023-02-26T11:52:03;6.07;;;2.83;;
18411;SDS011;27097;51.738;19.472;2023-02-26T11:54:37;5.07;;;3.03;;
18411;SDS011;27097;51.738;19.472;2023-02-26T11:57:06;6.82;;;2.95;;
18411;SDS011;27097;51.738;19.472;2023-02-26T11:59:40;6.47;;;2.72;;
18411;SDS011;27097;51.738;19.472;2023-02-26T12:02:10;4.32;;;2.58;;
18411;SDS011;27097;51.738;19.472;2023-02-26T12:04:41;8.88;;;3.22;;
18411;SDS011;27097;51.738;19.472;2023-02-26T12:07:10;6.90;;;3.10;;
18411;SDS011;27097;51.738;19.472;2023-02-26T12:09:40;5.28;;;2.75;;
18411;SDS011;27097;51.738;19.472;2023-02-26T12:12:17;6.53;;;3.10;;
18411;SDS011;27097;51.738;19.472;2023-02-26T12:15:12;4.30;;;2.75;;
18411;SDS011;27097;51.738;19.472;2023-02-26T12:17:53;5.45;;;2.70;;
18411;SDS011;27097;51.738;19.472;2023-02-26T12:20:39;4.88;;;2.63;;
18411;SDS011;27097;51.738;19.472;2023-02-26T12:23:22;9.52;;;3.05;;
18411;SDS011;27097;51.738;19.472;2023-02-26T12:26:12;16.98;;;3.65;;
18411;SDS011;27097;51.738;19.472;2023-02-26T12:28:55;18.13;;;3.58;;
18411;SDS011;27097;51.738;19.472;2023-02-26T12:31:42;13.63;;;3.60;;
18411;SDS011;27097;51.738;19.472;2023-02-26T12:37:34;14.77;;;3.42;;
18411;SDS011;27097;51.738;19.472;2023-02-26T12:40:11;11.07;;;3.47;;
18411;SDS011;27097;51.738;19.472;2023-02-26T12:42:49;11.13;;;3.25;;
18411;SDS011;27097;51.738;19.472;2023-02-26T12:45:28;10.68;;;3.03;;
18411;SDS011;27097;51.738;19.472;2023-02-26T12:48:09;12.48;;;2.88;;
18411;SDS011;27097;51.738;19.472;2023-02-26T12:50:57;9.30;;;2.72;;
18411;SDS011;27097;51.738;19.472;2023-02-26T12:53:36;11.98;;;3.05;;
18411;SDS011;27097;51.738;19.472;2023-02-26T12:56:31;12.43;;;3.38;;
18411;SDS011;27097;51.738;19.472;2023-02-26T12:59:18;10.85;;;3.13;;
18411;SDS011;27097;51.738;19.472;2023-02-26T13:02:07;15.55;;;3.15;;
18411;SDS011;27097;51.738;19.472;2023-02-26T13:04:55;7.18;;;3.13;;
18411;SDS011;27097;51.738;19.472;2023-02-26T13:07:40;9.00;;;2.92;;
18411;SDS011;27097;51.738;19.472;2023-02-26T13:10:20;9.35;;;3.10;;
18411;SDS011;27097;51.738;19.472;2023-02-26T13:12:59;9.15;;;3.25;;
18411;SDS011;27097;51.738;19.472;2023-02-26T13:15:45;12.85;;;3.30;;
18411;SDS011;27097;51.738;19.472;2023-02-26T13:18:21;8.93;;;2.72;;
18411;SDS011;27097;51.738;19.472;2023-02-26T13:20:56;7.10;;;2.72;;
18411;SDS011;27097;51.738;19.472;2023-02-26T13:23:25;6.70;;;2.78;;
18411;SDS011;27097;51.738;19.472;2023-02-26T13:26:00;9.23;;;3.10;;
18411;SDS011;27097;51.738;19.472;2023-02-26T13:28:34;6.38;;;2.47;;
18411;SDS011;27097;51.738;19.472;2023-02-26T13:31:06;6.97;;;2.90;;
18411;SDS011;27097;51.738;19.472;2023-02-26T13:33:51;13.00;;;2.80;;
18411;SDS011;27097;51.738;19.472;2023-02-26T13:36:21;12.90;;;3.40;;
18411;SDS011;27097;51.738;19.472;2023-02-26T13:38:53;7.63;;;2.80;;
18411;SDS011;27097;51.738;19.472;2023-02-26T13:41:33;10.25;;;2.78;;
18411;SDS011;27097;51.738;19.472;2023-02-26T13:44:21;5.25;;;2.72;;
18411;SDS011;27097;51.738;19.472;2023-02-26T13:47:06;6.47;;;2.60;;
18411;SDS011;27097;51.738;19.472;2023-02-26T13:49:49;7.03;;;2.60;;
18411;SDS011;27097;51.738;19.472;2023-02-26T13:52:25;6.07;;;2.63;;
18411;SDS011;27097;51.738;19.472;2023-02-26T13:54:54;6.22;;;2.85;;
18411;SDS011;27097;51.738;19.472;2023-02-26T13:57:35;5.53;;;2.80;;
18411;SDS011;27097;51.738;19.472;2023-02-26T14:00:09;6.90;;;2.90;;
18411;SDS011;27097;51.738;19.472;2023-02-26T14:02:51;6.82;;;2.80;;
18411;SDS011;27097;51.738;19.472;2023-02-26T14:05:33;9.02;;;2.83;;
18411;SDS011;27097;51.738;19.472;2023-02-26T14:08:26;8.07;;;2.83;;
18411;SDS011;27097;51.738;19.472;2023-02-26T14:14:08;7.10;;;2.70;;
18411;SDS011;27097;51.738;19.472;2023-02-26T14:16:38;7.68;;;2.88;;
18411;SDS011;27097;51.738;19.472;2023-02-26T14:19:18;7.65;;;3.00;;
18411;SDS011;27097;51.738;19.472;2023-02-26T14:21:52;5.97;;;3.03;;
18411;SDS011;27097;51.738;19.472;2023-02-26T14:24:29;6.53;;;2.97;;
18411;SDS011;27097;51.738;19.472;2023-02-26T14:27:08;6.70;;;3.00;;
18411;SDS011;27097;51.738;19.472;2023-02-26T14:30:01;5.07;;;2.65;;
18411;SDS011;27097;51.738;19.472;2023-02-26T14:32:33;5.88;;;2.85;;
18411;SDS011;27097;51.738;19.472;2023-02-26T14:35:10;5.85;;;2.97;;
18411;SDS011;27097;51.738;19.472;2023-02-26T14:37:53;4.82;;;2.65;;
18411;SDS011;27097;51.738;19.472;2023-02-26T14:40:24;4.90;;;2.90;;
18411;SDS011;27097;51.738;19.472;2023-02-26T14:42:52;5.70;;;2.72;;
18411;SDS011;27097;51.738;19.472;2023-02-26T14:45:29;8.70;;;2.88;;
18411;SDS011;27097;51.738;19.472;2023-02-26T14:47:58;6.90;;;2.42;;
18411;SDS011;27097;51.738;19.472;2023-02-26T14:50:29;6.07;;;2.60;;
18411;SDS011;27097;51.738;19.472;2023-02-26T14:53:09;7.30;;;2.55;;
18411;SDS011;27097;51.738;19.472;2023-02-26T14:55:56;6.22;;;2.33;;
18411;SDS011;27097;51.738;19.472;2023-02-26T15:01:42;5.43;;;2.60;;
18411;SDS011;27097;51.738;19.472;2023-02-26T15:04:21;13.82;;;2.70;;
18411;SDS011;27097;51.738;19.472;2023-02-26T15:07:07;10.27;;;2.75;;
18411;SDS011;27097;51.738;19.472;2023-02-26T15:09:47;8.20;;;2.55;;
18411;SDS011;27097;51.738;19.472;2023-02-26T15:12:28;5.53;;;2.75;;
18411;SDS011;27097;51.738;19.472;2023-02-26T15:15:11;5.38;;;2.47;;
18411;SDS011;27097;51.738;19.472;2023-02-26T15:18:00;6.95;;;2.67;;